sensor_id;sensor_type;location;lat;lon;timestamp;pressure;altitude;pressure_sealevel;temperature;humidity
73817;BME280;62146;53.232;-1.304;2023-04-29T00:00:43;100722.41;;;9.61;100.00
73817;BME280;62146;53.232;-1.304;2023-04-29T00:03:10;100722.97;;;9.62;100.00
73817;BME280;62146;53.232;-1.304;2023-04-29T00:05:37;100720.91;;;9.64;100.00
73817;BME280;62146;53.232;-1.304;2023-04-29T00:08:04;100723.56;;;9.64;100.00
73817;BME280;62146;53.232;-1.304;2023-04-29T00:10:31;100729.44;;;9.66;100.00
73817;BME280;62146;53.232;-1.304;2023-04-29T00:12:58;100724.13;;;9.66;100.00
73817;BME280;62146;53.232;-1.304;2023-04-29T00:15:25;100717.22;;;9.65;100.00
73817;BME280;62146;53.232;-1.304;2023-04-29T00:17:52;100727.94;;;9.70;100.00
73817;BME280;62146;53.232;-1.304;2023-04-29T00:20:19;100736.50;;;9.72;100.00
73817;BME280;62146;53.232;-1.304;2023-04-29T00:22:45;100728.53;;;9.72;100.00
73817;BME280;62146;53.232;-1.304;2023-04-29T00:25:12;100733.03;;;9.72;100.00
73817;BME280;62146;53.232;-1.304;2023-04-29T00:27:38;100734.66;;;9.73;100.00
73817;BME280;62146;53.232;-1.304;2023-04-29T00:30:06;100736.25;;;9.74;100.00
73817;BME280;62146;53.232;-1.304;2023-04-29T00:32:33;100737.66;;;9.76;100.00
73817;BME280;62146;53.232;-1.304;2023-04-29T00:35:00;100736.63;;;9.77;100.00
73817;BME280;62146;53.232;-1.304;2023-04-29T00:37:27;100736.63;;;9.77;100.00
73817;BME280;62146;53.232;-1.304;2023-04-29T00:39:54;100732.91;;;9.78;100.00
73817;BME280;62146;53.232;-1.304;2023-04-29T00:42:20;100737.78;;;9.81;100.00
73817;BME280;62146;53.232;-1.304;2023-04-29T00:44:47;100734.09;;;9.82;100.00
73817;BME280;62146;53.232;-1.304;2023-04-29T00:47:14;100731.44;;;9.82;100.00
73817;BME280;62146;53.232;-1.304;2023-04-29T00:49:40;100729.38;;;9.84;100.00
73817;BME280;62146;53.232;-1.304;2023-04-29T00:52:09;100733.06;;;9.83;100.00
73817;BME280;62146;53.232;-1.304;2023-04-29T00:54:37;100734.69;;;9.84;100.00
73817;BME280;62146;53.232;-1.304;2023-04-29T00:57:04;100735.28;;;9.86;100.00
73817;BME280;62146;53.232;-1.304;2023-04-29T00:59:32;100737.13;;;9.86;100.00
73817;BME280;62146;53.232;-1.304;2023-04-29T01:02:03;100746.72;;;9.87;100.00
73817;BME280;62146;53.232;-1.304;2023-04-29T01:04:30;100733.22;;;9.88;100.00
73817;BME280;62146;53.232;-1.304;2023-04-29T01:07:11;100734.28;;;9.87;100.00
73817;BME280;62146;53.232;-1.304;2023-04-29T01:10:07;100735.06;;;9.88;100.00
73817;BME280;62146;53.232;-1.304;2023-04-29T01:15:11;100739.13;;;9.90;100.00
73817;BME280;62146;53.232;-1.304;2023-04-29T01:17:58;100730.34;;;9.89;100.00
73817;BME280;62146;53.232;-1.304;2023-04-29T01:20:26;100735.63;;;9.89;100.00
73817;BME280;62146;53.232;-1.304;2023-04-29T01:22:53;100734.38;;;9.92;100.00
73817;BME280;62146;53.232;-1.304;2023-04-29T01:25:20;100739.94;;;9.90;100.00
73817;BME280;62146;53.232;-1.304;2023-04-29T01:34:10;100748.66;;;9.91;100.00
73817;BME280;62146;53.232;-1.304;2023-04-29T01:40:11;100754.78;;;9.91;100.00
73817;BME280;62146;53.232;-1.304;2023-04-29T01:43:10;100755.56;;;9.92;100.00
73817;BME280;62146;53.232;-1.304;2023-04-29T01:45:38;100752.94;;;9.92;100.00
73817;BME280;62146;53.232;-1.304;2023-04-29T01:48:08;100747.88;;;9.90;100.00
73817;BME280;62146;53.232;-1.304;2023-04-29T01:50:35;100746.81;;;9.91;100.00
73817;BME280;62146;53.232;-1.304;2023-04-29T01:53:01;100747.63;;;9.92;100.00
73817;BME280;62146;53.232;-1.304;2023-04-29T01:55:28;100747.63;;;9.92;100.00
73817;BME280;62146;53.232;-1.304;2023-04-29T01:57:54;100747.38;;;9.93;100.00
73817;BME280;62146;53.232;-1.304;2023-04-29T02:00:21;100751.88;;;9.93;100.00
73817;BME280;62146;53.232;-1.304;2023-04-29T02:02:48;100751.09;;;9.92;100.00
73817;BME280;62146;53.232;-1.304;2023-04-29T02:05:14;100749.25;;;9.93;100.00
73817;BME280;62146;53.232;-1.304;2023-04-29T02:07:41;100752.69;;;9.93;100.00
73817;BME280;62146;53.232;-1.304;2023-04-29T02:10:09;100758.81;;;9.94;100.00
73817;BME280;62146;53.232;-1.304;2023-04-29T02:12:37;100753.53;;;9.94;100.00
73817;BME280;62146;53.232;-1.304;2023-04-29T02:15:04;100758.81;;;9.94;100.00
73817;BME280;62146;53.232;-1.304;2023-04-29T02:17:32;100758.00;;;9.93;100.00
73817;BME280;62146;53.232;-1.304;2023-04-29T02:19:59;100751.88;;;9.93;100.00
73817;BME280;62146;53.232;-1.304;2023-04-29T02:22:26;100762.47;;;9.93;100.00
73817;BME280;62146;53.232;-1.304;2023-04-29T02:24:52;100750.88;;;9.94;100.00
73817;BME280;62146;53.232;-1.304;2023-04-29T02:27:19;100758.81;;;9.94;100.00
73817;BME280;62146;53.232;-1.304;2023-04-29T02:29:46;100754.53;;;9.93;100.00
73817;BME280;62146;53.232;-1.304;2023-04-29T02:32:12;100753.72;;;9.92;100.00
73817;BME280;62146;53.232;-1.304;2023-04-29T02:34:41;100762.47;;;9.93;100.00
73817;BME280;62146;53.232;-1.304;2023-04-29T02:37:07;100755.34;;;9.93;100.00
73817;BME280;62146;53.232;-1.304;2023-04-29T02:39:34;100752.47;;;9.95;100.00
73817;BME280;62146;53.232;-1.304;2023-04-29T02:42:01;100758.81;;;9.94;100.00
73817;BME280;62146;53.232;-1.304;2023-04-29T02:44:28;100749.84;;;9.95;100.00
73817;BME280;62146;53.232;-1.304;2023-04-29T02:46:56;100750.28;;;9.92;100.00
73817;BME280;62146;53.232;-1.304;2023-04-29T02:49:24;100750.28;;;9.92;100.00
73817;BME280;62146;53.232;-1.304;2023-04-29T02:51:51;100751.09;;;9.92;100.00
73817;BME280;62146;53.232;-1.304;2023-04-29T02:54:18;100757.44;;;9.91;100.00
73817;BME280;62146;53.232;-1.304;2023-04-29T02:56:45;100755.00;;;9.90;100.00
73817;BME280;62146;53.232;-1.304;2023-04-29T02:59:11;100749.91;;;9.89;100.00
73817;BME280;62146;53.232;-1.304;2023-04-29T03:01:38;100759.28;;;9.91;100.00
73817;BME280;62146;53.232;-1.304;2023-04-29T03:04:05;100768.25;;;9.90;100.00
73817;BME280;62146;53.232;-1.304;2023-04-29T03:06:32;100770.66;;;9.91;100.00
73817;BME280;62146;53.232;-1.304;2023-04-29T03:08:58;100759.47;;;9.89;100.00
73817;BME280;62146;53.232;-1.304;2023-04-29T03:11:25;100757.06;;;9.88;100.00
73817;BME280;62146;53.232;-1.304;2023-04-29T03:13:51;100768.25;;;9.90;100.00
73817;BME280;62146;53.232;-1.304;2023-04-29T03:16:19;100771.13;;;9.89;100.00
73817;BME280;62146;53.232;-1.304;2023-04-29T03:18:46;100768.03;;;9.91;100.00
73817;BME280;62146;53.232;-1.304;2023-04-29T03:21:13;100763.97;;;9.89;100.00
73817;BME280;62146;53.232;-1.304;2023-04-29T03:23:40;100761.13;;;9.90;100.00
73817;BME280;62146;53.232;-1.304;2023-04-29T03:26:07;100771.13;;;9.89;100.00
73817;BME280;62146;53.232;-1.304;2023-04-29T03:28:34;100763.75;;;9.90;100.00
73817;BME280;62146;53.232;-1.304;2023-04-29T03:31:01;100765.00;;;9.88;100.00
73817;BME280;62146;53.232;-1.304;2023-04-29T03:33:28;100768.25;;;9.90;100.00
73817;BME280;62146;53.232;-1.304;2023-04-29T03:35:54;100760.31;;;9.90;100.00
73817;BME280;62146;53.232;-1.304;2023-04-29T03:38:21;100768.25;;;9.90;100.00
73817;BME280;62146;53.232;-1.304;2023-04-29T03:40:48;100763.75;;;9.90;100.00
73817;BME280;62146;53.232;-1.304;2023-04-29T03:43:14;100765.59;;;9.90;100.00
73817;BME280;62146;53.232;-1.304;2023-04-29T03:45:41;100769.28;;;9.89;100.00
73817;BME280;62146;53.232;-1.304;2023-04-29T03:48:08;100767.22;;;9.91;100.00
73817;BME280;62146;53.232;-1.304;2023-04-29T03:50:35;100769.06;;;9.90;100.00
73817;BME280;62146;53.232;-1.304;2023-04-29T03:53:02;100762.97;;;9.90;100.00
73817;BME280;62146;53.232;-1.304;2023-04-29T03:55:28;100762.72;;;9.91;100.00
73817;BME280;62146;53.232;-1.304;2023-04-29T03:57:55;100764.31;;;9.92;100.00
73817;BME280;62146;53.232;-1.304;2023-04-29T04:00:21;100775.97;;;9.91;100.00
73817;BME280;62146;53.232;-1.304;2023-04-29T04:02:49;100762.72;;;9.91;100.00
73817;BME280;62146;53.232;-1.304;2023-04-29T04:05:16;100774.13;;;9.92;100.00
73817;BME280;62146;53.232;-1.304;2023-04-29T04:07:45;100766.41;;;9.90;100.00
73817;BME280;62146;53.232;-1.304;2023-04-29T04:10:12;100765.38;;;9.91;100.00
73817;BME280;62146;53.232;-1.304;2023-04-29T04:12:38;100779.41;;;9.92;100.00
73817;BME280;62146;53.232;-1.304;2023-04-29T04:15:14;100784.97;;;9.90;100.00
73817;BME280;62146;53.232;-1.304;2023-04-29T04:17:40;100779.66;;;9.90;100.00
73817;BME280;62146;53.232;-1.304;2023-04-29T04:20:07;100783.09;;;9.91;100.00
73817;BME280;62146;53.232;-1.304;2023-04-29T04:22:34;100785.16;;;9.89;100.00
73817;BME280;62146;53.232;-1.304;2023-04-29T04:25:01;100781.72;;;9.89;100.00
73817;BME280;62146;53.232;-1.304;2023-04-29T04:27:28;100779.28;;;9.87;100.00
73817;BME280;62146;53.232;-1.304;2023-04-29T04:29:55;100787.66;;;9.84;100.00
73817;BME280;62146;53.232;-1.304;2023-04-29T04:32:22;100783.84;;;9.80;100.00
73817;BME280;62146;53.232;-1.304;2023-04-29T04:34:49;100786.38;;;9.75;100.00
73817;BME280;62146;53.232;-1.304;2023-04-29T04:37:16;100786.56;;;9.74;100.00
73817;BME280;62146;53.232;-1.304;2023-04-29T04:39:42;100795.31;;;9.74;100.00
73817;BME280;62146;53.232;-1.304;2023-04-29T04:42:09;100794.03;;;9.65;100.00
73817;BME280;62146;53.232;-1.304;2023-04-29T04:44:36;100787.56;;;9.62;100.00
73817;BME280;62146;53.232;-1.304;2023-04-29T04:47:04;100805.06;;;9.62;100.00
73817;BME280;62146;53.232;-1.304;2023-04-29T04:49:31;100800.44;;;9.58;100.00
73817;BME280;62146;53.232;-1.304;2023-04-29T04:51:58;100804.31;;;9.56;100.00
73817;BME280;62146;53.232;-1.304;2023-04-29T04:54:24;100809.41;;;9.57;100.00
73817;BME280;62146;53.232;-1.304;2023-04-29T04:56:51;100808.00;;;9.55;100.00
73817;BME280;62146;53.232;-1.304;2023-04-29T04:59:18;100816.88;;;9.49;100.00
73817;BME280;62146;53.232;-1.304;2023-04-29T05:01:44;100819.13;;;9.45;100.00
73817;BME280;62146;53.232;-1.304;2023-04-29T05:04:11;100824.63;;;9.44;100.00
73817;BME280;62146;53.232;-1.304;2023-04-29T05:06:37;100811.19;;;9.45;100.00
73817;BME280;62146;53.232;-1.304;2023-04-29T05:09:04;100818.16;;;9.40;100.00
73817;BME280;62146;53.232;-1.304;2023-04-29T05:11:31;100817.47;;;9.33;100.00
73817;BME280;62146;53.232;-1.304;2023-04-29T05:13:58;100815.03;;;9.32;100.00
73817;BME280;62146;53.232;-1.304;2023-04-29T05:16:25;100825.84;;;9.30;100.00
73817;BME280;62146;53.232;-1.304;2023-04-29T05:18:51;100833.41;;;9.27;100.00
73817;BME280;62146;53.232;-1.304;2023-04-29T05:21:18;100823.47;;;9.22;100.00
73817;BME280;62146;53.232;-1.304;2023-04-29T05:23:44;100839.78;;;9.19;100.00
73817;BME280;62146;53.232;-1.304;2023-04-29T05:26:11;100845.88;;;9.20;100.00
73817;BME280;62146;53.232;-1.304;2023-04-29T05:28:37;100845.75;;;9.15;100.00
73817;BME280;62146;53.232;-1.304;2023-04-29T05:31:04;100848.16;;;9.16;100.00
73817;BME280;62146;53.232;-1.304;2023-04-29T05:33:31;100846.56;;;9.15;100.00
73817;BME280;62146;53.232;-1.304;2023-04-29T05:35:58;100844.13;;;9.14;100.00
73817;BME280;62146;53.232;-1.304;2023-04-29T05:38:24;100845.53;;;9.16;100.00
73817;BME280;62146;53.232;-1.304;2023-04-29T05:40:55;100851.19;;;9.20;100.00
73817;BME280;62146;53.232;-1.304;2023-04-29T05:43:21;100847.97;;;9.18;100.00
73817;BME280;62146;53.232;-1.304;2023-04-29T05:45:48;100860.91;;;9.26;100.00
73817;BME280;62146;53.232;-1.304;2023-04-29T05:48:15;100855.16;;;9.29;100.00
73817;BME280;62146;53.232;-1.304;2023-04-29T05:50:41;100852.69;;;9.34;100.00
73817;BME280;62146;53.232;-1.304;2023-04-29T05:53:08;100852.00;;;9.38;100.00
73817;BME280;62146;53.232;-1.304;2023-04-29T05:55:35;100844.63;;;9.40;100.00
73817;BME280;62146;53.232;-1.304;2023-04-29T05:58:01;100855.16;;;9.46;100.00
73817;BME280;62146;53.232;-1.304;2023-04-29T06:00:28;100860.03;;;9.49;100.00
73817;BME280;62146;53.232;-1.304;2023-04-29T06:02:55;100864.03;;;9.52;100.00
73817;BME280;62146;53.232;-1.304;2023-04-29T06:05:25;100859.34;;;9.54;100.00
73817;BME280;62146;53.232;-1.304;2023-04-29T06:07:52;100851.53;;;9.59;100.00
73817;BME280;62146;53.232;-1.304;2023-04-29T06:10:19;100855.16;;;9.64;100.00
73817;BME280;62146;53.232;-1.304;2023-04-29T06:12:46;100856.09;;;9.69;100.00
73817;BME280;62146;53.232;-1.304;2023-04-29T06:15:16;100859.72;;;9.75;100.00
73817;BME280;62146;53.232;-1.304;2023-04-29T06:17:43;100855.59;;;9.79;100.00
73817;BME280;62146;53.232;-1.304;2023-04-29T06:20:10;100861.81;;;9.84;100.00
73817;BME280;62146;53.232;-1.304;2023-04-29T06:22:37;100860.38;;;9.88;100.00
73817;BME280;62146;53.232;-1.304;2023-04-29T06:25:04;100860.50;;;9.93;100.00
73817;BME280;62146;53.232;-1.304;2023-04-29T06:27:30;100869.41;;;9.98;100.00
73817;BME280;62146;53.232;-1.304;2023-04-29T06:29:57;100865.03;;;10.04;100.00
73817;BME280;62146;53.232;-1.304;2023-04-29T06:32:24;100872.09;;;10.10;100.00
73817;BME280;62146;53.232;-1.304;2023-04-29T06:34:50;100868.78;;;10.14;100.00
73817;BME280;62146;53.232;-1.304;2023-04-29T06:37:17;100879.28;;;10.20;100.00
73817;BME280;62146;53.232;-1.304;2023-04-29T06:39:43;100871.47;;;10.25;100.00
73817;BME280;62146;53.232;-1.304;2023-04-29T06:42:10;100875.28;;;10.29;100.00
73817;BME280;62146;53.232;-1.304;2023-04-29T06:44:37;100877.63;;;10.37;100.00
73817;BME280;62146;53.232;-1.304;2023-04-29T06:47:04;100876.38;;;10.40;100.00
73817;BME280;62146;53.232;-1.304;2023-04-29T06:49:31;100879.13;;;10.44;100.00
73817;BME280;62146;53.232;-1.304;2023-04-29T06:51:57;100886.41;;;10.49;100.00
73817;BME280;62146;53.232;-1.304;2023-04-29T06:54:24;100882.25;;;10.53;100.00
73817;BME280;62146;53.232;-1.304;2023-04-29T06:56:53;100890.69;;;10.61;100.00
73817;BME280;62146;53.232;-1.304;2023-04-29T06:59:19;100897.97;;;10.66;100.00
73817;BME280;62146;53.232;-1.304;2023-04-29T07:01:46;100892.56;;;10.72;100.00
73817;BME280;62146;53.232;-1.304;2023-04-29T07:04:15;100896.72;;;10.79;100.00
73817;BME280;62146;53.232;-1.304;2023-04-29T07:06:41;100888.69;;;10.86;100.00
73817;BME280;62146;53.232;-1.304;2023-04-29T07:09:12;100903.22;;;10.95;100.00
73817;BME280;62146;53.232;-1.304;2023-04-29T07:11:40;100896.75;;;11.02;100.00
73817;BME280;62146;53.232;-1.304;2023-04-29T07:14:07;100894.81;;;11.09;100.00
73817;BME280;62146;53.232;-1.304;2023-04-29T07:16:34;100893.66;;;11.16;100.00
73817;BME280;62146;53.232;-1.304;2023-04-29T07:19:00;100895.16;;;11.23;100.00
73817;BME280;62146;53.232;-1.304;2023-04-29T07:21:27;100901.97;;;11.31;100.00
73817;BME280;62146;53.232;-1.304;2023-04-29T07:23:54;100899.78;;;11.39;100.00
73817;BME280;62146;53.232;-1.304;2023-04-29T07:26:21;100900.44;;;11.46;100.00
73817;BME280;62146;53.232;-1.304;2023-04-29T07:28:47;100907.50;;;11.52;100.00
73817;BME280;62146;53.232;-1.304;2023-04-29T07:31:15;100906.34;;;11.59;100.00
73817;BME280;62146;53.232;-1.304;2023-04-29T07:33:43;100901.72;;;11.66;100.00
73817;BME280;62146;53.232;-1.304;2023-04-29T07:36:10;100913.84;;;11.74;100.00
73817;BME280;62146;53.232;-1.304;2023-04-29T07:38:37;100912.06;;;11.79;100.00
73817;BME280;62146;53.232;-1.304;2023-04-29T07:41:03;100913.56;;;11.86;100.00
73817;BME280;62146;53.232;-1.304;2023-04-29T07:43:30;100918.50;;;11.94;100.00
73817;BME280;62146;53.232;-1.304;2023-04-29T07:45:57;100910.63;;;11.99;100.00
73817;BME280;62146;53.232;-1.304;2023-04-29T07:48:23;100907.59;;;12.07;100.00
73817;BME280;62146;53.232;-1.304;2023-04-29T07:50:50;100909.31;;;12.13;100.00
73817;BME280;62146;53.232;-1.304;2023-04-29T07:53:17;100920.38;;;12.21;100.00
73817;BME280;62146;53.232;-1.304;2023-04-29T07:55:43;100914.13;;;12.27;100.00
73817;BME280;62146;53.232;-1.304;2023-04-29T07:58:10;100916.63;;;12.33;100.00
73817;BME280;62146;53.232;-1.304;2023-04-29T08:00:36;100918.94;;;12.41;100.00
73817;BME280;62146;53.232;-1.304;2023-04-29T08:03:04;100912.63;;;12.47;100.00
73817;BME280;62146;53.232;-1.304;2023-04-29T08:05:30;100908.53;;;12.56;100.00
73817;BME280;62146;53.232;-1.304;2023-04-29T08:07:57;100916.13;;;12.64;100.00
73817;BME280;62146;53.232;-1.304;2023-04-29T08:10:24;100916.78;;;12.71;100.00
73817;BME280;62146;53.232;-1.304;2023-04-29T08:12:51;100919.06;;;12.79;100.00
73817;BME280;62146;53.232;-1.304;2023-04-29T08:15:18;100923.78;;;12.88;100.00
73817;BME280;62146;53.232;-1.304;2023-04-29T08:17:45;100921.50;;;12.96;100.00
73817;BME280;62146;53.232;-1.304;2023-04-29T08:20:12;100919.50;;;13.03;100.00
73817;BME280;62146;53.232;-1.304;2023-04-29T08:22:39;100919.09;;;13.11;100.00
73817;BME280;62146;53.232;-1.304;2023-04-29T08:25:06;100909.63;;;13.20;100.00
73817;BME280;62146;53.232;-1.304;2023-04-29T08:27:33;100916.16;;;13.29;100.00
73817;BME280;62146;53.232;-1.304;2023-04-29T08:29:59;100918.44;;;13.37;100.00
73817;BME280;62146;53.232;-1.304;2023-04-29T08:32:26;100912.69;;;13.44;100.00
73817;BME280;62146;53.232;-1.304;2023-04-29T08:34:52;100913.06;;;13.53;100.00
73817;BME280;62146;53.232;-1.304;2023-04-29T08:37:19;100920.63;;;13.61;100.00
73817;BME280;62146;53.232;-1.304;2023-04-29T08:39:46;100923.69;;;13.69;100.00
73817;BME280;62146;53.232;-1.304;2023-04-29T08:42:13;100933.66;;;13.78;100.00
73817;BME280;62146;53.232;-1.304;2023-04-29T08:44:40;100929.75;;;13.86;100.00
73817;BME280;62146;53.232;-1.304;2023-04-29T08:47:07;100929.94;;;13.95;100.00
73817;BME280;62146;53.232;-1.304;2023-04-29T08:49:34;100928.44;;;14.04;100.00
73817;BME280;62146;53.232;-1.304;2023-04-29T08:52:03;100924.03;;;14.15;100.00
73817;BME280;62146;53.232;-1.304;2023-04-29T08:54:30;100932.16;;;14.24;100.00
73817;BME280;62146;53.232;-1.304;2023-04-29T08:56:58;100933.06;;;14.35;100.00
73817;BME280;62146;53.232;-1.304;2023-04-29T08:59:26;100936.16;;;14.48;100.00
73817;BME280;62146;53.232;-1.304;2023-04-29T09:01:53;100928.00;;;14.59;100.00
73817;BME280;62146;53.232;-1.304;2023-04-29T09:05:03;100916.91;;;14.72;100.00
73817;BME280;62146;53.232;-1.304;2023-04-29T09:07:29;100933.56;;;14.84;100.00
73817;BME280;62146;53.232;-1.304;2023-04-29T09:09:58;100933.41;;;14.95;100.00
73817;BME280;62146;53.232;-1.304;2023-04-29T09:12:24;100944.75;;;15.07;100.00
73817;BME280;62146;53.232;-1.304;2023-04-29T09:14:51;100936.03;;;15.16;100.00
73817;BME280;62146;53.232;-1.304;2023-04-29T09:17:18;100944.38;;;15.25;100.00
73817;BME280;62146;53.232;-1.304;2023-04-29T09:19:45;100946.56;;;15.32;100.00
73817;BME280;62146;53.232;-1.304;2023-04-29T09:22:12;100943.97;;;15.42;100.00
73817;BME280;62146;53.232;-1.304;2023-04-29T09:24:38;100944.00;;;15.52;100.00
73817;BME280;62146;53.232;-1.304;2023-04-29T09:27:05;100947.00;;;15.60;100.00
73817;BME280;62146;53.232;-1.304;2023-04-29T09:29:32;100947.31;;;15.69;100.00
73817;BME280;62146;53.232;-1.304;2023-04-29T09:31:59;100951.13;;;15.78;100.00
73817;BME280;62146;53.232;-1.304;2023-04-29T09:34:31;100949.31;;;15.88;100.00
73817;BME280;62146;53.232;-1.304;2023-04-29T09:36:58;100951.22;;;15.97;100.00
73817;BME280;62146;53.232;-1.304;2023-04-29T09:39:25;100957.44;;;16.08;100.00
73817;BME280;62146;53.232;-1.304;2023-04-29T09:44:23;100953.78;;;16.23;100.00
73817;BME280;62146;53.232;-1.304;2023-04-29T09:49:29;100951.16;;;16.38;100.00
73817;BME280;62146;53.232;-1.304;2023-04-29T09:51:59;100954.94;;;16.47;100.00
73817;BME280;62146;53.232;-1.304;2023-04-29T09:54:28;100950.69;;;16.61;100.00
73817;BME280;62146;53.232;-1.304;2023-04-29T09:56:56;100960.09;;;16.78;100.00
73817;BME280;62146;53.232;-1.304;2023-04-29T09:59:23;100954.50;;;16.99;100.00
73817;BME280;62146;53.232;-1.304;2023-04-29T10:01:51;100943.78;;;17.23;100.00
73817;BME280;62146;53.232;-1.304;2023-04-29T10:04:19;100953.69;;;17.47;100.00
73817;BME280;62146;53.232;-1.304;2023-04-29T10:06:51;100941.31;;;17.71;100.00
73817;BME280;62146;53.232;-1.304;2023-04-29T10:09:19;100953.06;;;17.95;100.00
73817;BME280;62146;53.232;-1.304;2023-04-29T10:11:48;100944.94;;;18.19;100.00
73817;BME280;62146;53.232;-1.304;2023-04-29T10:14:16;100948.34;;;18.39;100.00
73817;BME280;62146;53.232;-1.304;2023-04-29T10:16:58;100946.59;;;18.58;100.00
73817;BME280;62146;53.232;-1.304;2023-04-29T10:19:34;100951.34;;;18.76;100.00
73817;BME280;62146;53.232;-1.304;2023-04-29T10:22:08;100940.47;;;18.95;100.00
73817;BME280;62146;53.232;-1.304;2023-04-29T10:24:36;100938.72;;;19.14;100.00
73817;BME280;62146;53.232;-1.304;2023-04-29T10:27:05;100939.31;;;19.34;100.00
73817;BME280;62146;53.232;-1.304;2023-04-29T10:29:33;100934.84;;;19.53;100.00
73817;BME280;62146;53.232;-1.304;2023-04-29T10:32:03;100941.97;;;19.67;100.00
73817;BME280;62146;53.232;-1.304;2023-04-29T10:34:30;100933.53;;;19.78;100.00
73817;BME280;62146;53.232;-1.304;2023-04-29T10:36:58;100935.31;;;19.87;100.00
73817;BME280;62146;53.232;-1.304;2023-04-29T10:39:46;100934.16;;;19.93;100.00
73817;BME280;62146;53.232;-1.304;2023-04-29T10:42:24;100944.06;;;19.98;100.00
73817;BME280;62146;53.232;-1.304;2023-04-29T10:45:16;100936.22;;;20.01;100.00
73817;BME280;62146;53.232;-1.304;2023-04-29T10:50:58;100933.44;;;20.11;100.00
73817;BME280;62146;53.232;-1.304;2023-04-29T10:53:26;100937.06;;;20.20;100.00
73817;BME280;62146;53.232;-1.304;2023-04-29T10:55:56;100936.97;;;20.30;100.00
73817;BME280;62146;53.232;-1.304;2023-04-29T10:58:40;100937.88;;;19.97;100.00
73817;BME280;62146;53.232;-1.304;2023-04-29T11:01:10;100945.25;;;20.10;100.00
73817;BME280;62146;53.232;-1.304;2023-04-29T11:06:15;100937.69;;;20.35;100.00
73817;BME280;62146;53.232;-1.304;2023-04-29T11:08:41;100943.75;;;20.45;100.00
73817;BME280;62146;53.232;-1.304;2023-04-29T11:11:08;100939.03;;;20.56;100.00
73817;BME280;62146;53.232;-1.304;2023-04-29T11:13:39;100933.72;;;20.69;100.00
73817;BME280;62146;53.232;-1.304;2023-04-29T11:16:09;100934.56;;;20.83;100.00
73817;BME280;62146;53.232;-1.304;2023-04-29T11:19:06;100937.25;;;21.01;100.00
73817;BME280;62146;53.232;-1.304;2023-04-29T11:21:36;100933.75;;;21.19;100.00
73817;BME280;62146;53.232;-1.304;2023-04-29T11:24:04;100925.31;;;21.38;100.00
73817;BME280;62146;53.232;-1.304;2023-04-29T11:26:35;100926.06;;;21.57;100.00
73817;BME280;62146;53.232;-1.304;2023-04-29T11:29:02;100923.50;;;21.78;100.00
73817;BME280;62146;53.232;-1.304;2023-04-29T11:31:31;100925.78;;;21.98;100.00
73817;BME280;62146;53.232;-1.304;2023-04-29T11:33:58;100921.13;;;22.17;100.00
73817;BME280;62146;53.232;-1.304;2023-04-29T11:36:25;100929.72;;;22.32;100.00
73817;BME280;62146;53.232;-1.304;2023-04-29T11:38:52;100920.44;;;22.46;100.00
73817;BME280;62146;53.232;-1.304;2023-04-29T11:41:19;100917.41;;;22.61;100.00
73817;BME280;62146;53.232;-1.304;2023-04-29T11:44:00;100919.28;;;22.74;100.00
73817;BME280;62146;53.232;-1.304;2023-04-29T11:46:32;100925.00;;;22.85;100.00
73817;BME280;62146;53.232;-1.304;2023-04-29T11:49:00;100922.94;;;22.91;100.00
73817;BME280;62146;53.232;-1.304;2023-04-29T11:51:27;100921.84;;;22.92;100.00
73817;BME280;62146;53.232;-1.304;2023-04-29T11:53:55;100916.75;;;22.90;100.00
73817;BME280;62146;53.232;-1.304;2023-04-29T11:56:23;100918.13;;;22.88;100.00
73817;BME280;62146;53.232;-1.304;2023-04-29T11:58:56;100910.16;;;22.83;100.00
73817;BME280;62146;53.232;-1.304;2023-04-29T12:01:24;100918.41;;;22.78;100.00
73817;BME280;62146;53.232;-1.304;2023-04-29T12:03:56;100920.69;;;22.71;100.00
73817;BME280;62146;53.232;-1.304;2023-04-29T12:06:28;100930.53;;;22.67;100.00
73817;BME280;62146;53.232;-1.304;2023-04-29T12:08:57;100925.25;;;22.62;100.00
73817;BME280;62146;53.232;-1.304;2023-04-29T12:11:24;100925.31;;;22.57;100.00
73817;BME280;62146;53.232;-1.304;2023-04-29T12:13:52;100925.66;;;22.56;100.00
73817;BME280;62146;53.232;-1.304;2023-04-29T12:16:19;100934.34;;;22.66;100.00
73817;BME280;62146;53.232;-1.304;2023-04-29T12:18:46;100929.09;;;22.83;100.00
73817;BME280;62146;53.232;-1.304;2023-04-29T12:21:12;100918.91;;;23.02;100.00
73817;BME280;62146;53.232;-1.304;2023-04-29T12:23:39;100930.03;;;23.22;100.00
73817;BME280;62146;53.232;-1.304;2023-04-29T12:26:06;100929.31;;;23.38;100.00
73817;BME280;62146;53.232;-1.304;2023-04-29T12:28:34;100926.75;;;23.55;100.00
73817;BME280;62146;53.232;-1.304;2023-04-29T12:31:00;100925.75;;;23.72;100.00
73817;BME280;62146;53.232;-1.304;2023-04-29T12:33:28;100932.50;;;23.92;100.00
73817;BME280;62146;53.232;-1.304;2023-04-29T12:35:57;100922.50;;;24.09;100.00
73817;BME280;62146;53.232;-1.304;2023-04-29T12:38:30;100921.16;;;24.28;100.00
73817;BME280;62146;53.232;-1.304;2023-04-29T12:40:59;100920.25;;;24.49;100.00
73817;BME280;62146;53.232;-1.304;2023-04-29T12:43:27;100925.69;;;24.66;100.00
73817;BME280;62146;53.232;-1.304;2023-04-29T12:46:02;100931.13;;;24.82;100.00
73817;BME280;62146;53.232;-1.304;2023-04-29T12:48:35;100930.84;;;24.92;100.00
73817;BME280;62146;53.232;-1.304;2023-04-29T12:51:04;100927.31;;;25.00;100.00
73817;BME280;62146;53.232;-1.304;2023-04-29T12:53:31;100920.13;;;25.04;100.00
73817;BME280;62146;53.232;-1.304;2023-04-29T12:55:58;100925.38;;;25.09;100.00
73817;BME280;62146;53.232;-1.304;2023-04-29T12:58:27;100917.38;;;25.21;100.00
73817;BME280;62146;53.232;-1.304;2023-04-29T13:00:55;100915.75;;;25.36;100.00
73817;BME280;62146;53.232;-1.304;2023-04-29T13:03:22;100914.31;;;25.55;100.00